sensor_id;sensor_type;location;lat;lon;timestamp;P1;durP1;ratioP1;P2;durP2;ratioP2
12163;SDS011;6145;50.192;10.064;2022-11-15T00:00:56;8.60;;;6.97;;
12163;SDS011;6145;50.192;10.064;2022-11-15T00:03:24;9.37;;;6.57;;
12163;SDS011;6145;50.192;10.064;2022-11-15T00:05:52;9.33;;;6.93;;
12163;SDS011;6145;50.192;10.064;2022-11-15T00:08:19;7.07;;;6.13;;
12163;SDS011;6145;50.192;10.064;2022-11-15T00:10:53;9.43;;;6.93;;
12163;SDS011;6145;50.192;10.064;2022-11-15T00:13:20;9.67;;;6.43;;
12163;SDS011;6145;50.192;10.064;2022-11-15T00:15:47;7.73;;;6.60;;
12163;SDS011;6145;50.192;10.064;2022-11-15T00:18:16;7.83;;;6.40;;
12163;SDS011;6145;50.192;10.064;2022-11-15T00:20:43;9.63;;;7.63;;
12163;SDS011;6145;50.192;10.064;2022-11-15T00:23:10;7.23;;;6.30;;
12163;SDS011;6145;50.192;10.064;2022-11-15T00:25:37;6.30;;;5.70;;
12163;SDS011;6145;50.192;10.064;2022-11-15T00:28:04;7.63;;;5.90;;
12163;SDS011;6145;50.192;10.064;2022-11-15T00:30:31;7.27;;;5.07;;
12163;SDS011;6145;50.192;10.064;2022-11-15T00:33:01;8.07;;;6.70;;
12163;SDS011;6145;50.192;10.064;2022-11-15T00:35:30;6.90;;;5.97;;
12163;SDS011;6145;50.192;10.064;2022-11-15T00:37:58;7.80;;;6.17;;
12163;SDS011;6145;50.192;10.064;2022-11-15T00:40:25;8.07;;;6.20;;
12163;SDS011;6145;50.192;10.064;2022-11-15T00:42:52;11.70;;;8.13;;
12163;SDS011;6145;50.192;10.064;2022-11-15T00:45:19;9.13;;;6.40;;
12163;SDS011;6145;50.192;10.064;2022-11-15T00:47:46;10.63;;;8.00;;
12163;SDS011;6145;50.192;10.064;2022-11-15T00:50:13;9.00;;;7.30;;
12163;SDS011;6145;50.192;10.064;2022-11-15T00:52:41;9.07;;;6.80;;
12163;SDS011;6145;50.192;10.064;2022-11-15T00:55:08;8.40;;;7.40;;
12163;SDS011;6145;50.192;10.064;2022-11-15T00:57:39;12.93;;;8.63;;
12163;SDS011;6145;50.192;10.064;2022-11-15T01:00:06;9.70;;;7.20;;
12163;SDS011;6145;50.192;10.064;2022-11-15T01:02:33;11.10;;;8.47;;
12163;SDS011;6145;50.192;10.064;2022-11-15T01:05:00;10.40;;;7.60;;
12163;SDS011;6145;50.192;10.064;2022-11-15T01:07:27;7.33;;;6.53;;
12163;SDS011;6145;50.192;10.064;2022-11-15T01:09:56;12.33;;;8.40;;
12163;SDS011;6145;50.192;10.064;2022-11-15T01:12:22;8.33;;;6.67;;
12163;SDS011;6145;50.192;10.064;2022-11-15T01:14:49;8.93;;;6.57;;
12163;SDS011;6145;50.192;10.064;2022-11-15T01:17:16;9.40;;;7.53;;
12163;SDS011;6145;50.192;10.064;2022-11-15T01:19:43;8.30;;;6.40;;
12163;SDS011;6145;50.192;10.064;2022-11-15T01:22:10;8.47;;;6.80;;
12163;SDS011;6145;50.192;10.064;2022-11-15T01:24:37;10.03;;;6.90;;
12163;SDS011;6145;50.192;10.064;2022-11-15T01:27:05;7.33;;;6.43;;
12163;SDS011;6145;50.192;10.064;2022-11-15T01:29:32;6.93;;;5.87;;
12163;SDS011;6145;50.192;10.064;2022-11-15T01:31:59;6.17;;;5.57;;
12163;SDS011;6145;50.192;10.064;2022-11-15T01:34:26;6.87;;;5.37;;
12163;SDS011;6145;50.192;10.064;2022-11-15T01:36:53;6.37;;;5.43;;
12163;SDS011;6145;50.192;10.064;2022-11-15T01:39:20;6.83;;;5.97;;
12163;SDS011;6145;50.192;10.064;2022-11-15T01:41:46;7.30;;;5.80;;
12163;SDS011;6145;50.192;10.064;2022-11-15T01:44:34;5.70;;;5.13;;
12163;SDS011;6145;50.192;10.064;2022-11-15T01:47:06;8.53;;;7.03;;
12163;SDS011;6145;50.192;10.064;2022-11-15T01:49:38;8.27;;;7.33;;
12163;SDS011;6145;50.192;10.064;2022-11-15T01:52:08;8.17;;;6.93;;
12163;SDS011;6145;50.192;10.064;2022-11-15T01:54:38;7.53;;;6.70;;
12163;SDS011;6145;50.192;10.064;2022-11-15T01:57:06;8.10;;;6.60;;
12163;SDS011;6145;50.192;10.064;2022-11-15T01:59:37;7.40;;;5.77;;
12163;SDS011;6145;50.192;10.064;2022-11-15T02:02:08;8.50;;;6.57;;
12163;SDS011;6145;50.192;10.064;2022-11-15T02:04:36;6.30;;;5.70;;
12163;SDS011;6145;50.192;10.064;2022-11-15T02:07:06;6.93;;;5.80;;
12163;SDS011;6145;50.192;10.064;2022-11-15T02:09:36;6.33;;;5.73;;
12163;SDS011;6145;50.192;10.064;2022-11-15T02:12:04;8.77;;;6.30;;
12163;SDS011;6145;50.192;10.064;2022-11-15T02:14:33;9.00;;;6.87;;
12163;SDS011;6145;50.192;10.064;2022-11-15T02:17:05;6.30;;;5.33;;
12163;SDS011;6145;50.192;10.064;2022-11-15T02:19:52;7.17;;;5.40;;
12163;SDS011;6145;50.192;10.064;2022-11-15T02:22:59;9.07;;;5.90;;
12163;SDS011;6145;50.192;10.064;2022-11-15T02:25:40;10.50;;;6.97;;
12163;SDS011;6145;50.192;10.064;2022-11-15T02:31:13;9.07;;;7.53;;
12163;SDS011;6145;50.192;10.064;2022-11-15T02:33:46;8.17;;;6.50;;
12163;SDS011;6145;50.192;10.064;2022-11-15T02:36:21;9.03;;;7.70;;
12163;SDS011;6145;50.192;10.064;2022-11-15T02:38:58;9.27;;;8.07;;
12163;SDS011;6145;50.192;10.064;2022-11-15T02:41:34;10.17;;;6.73;;
12163;SDS011;6145;50.192;10.064;2022-11-15T02:44:07;8.70;;;6.50;;
12163;SDS011;6145;50.192;10.064;2022-11-15T02:46:39;8.73;;;6.33;;
12163;SDS011;6145;50.192;10.064;2022-11-15T02:49:27;8.63;;;7.60;;
12163;SDS011;6145;50.192;10.064;2022-11-15T02:51:57;7.53;;;6.83;;
12163;SDS011;6145;50.192;10.064;2022-11-15T02:54:25;8.97;;;8.03;;
12163;SDS011;6145;50.192;10.064;2022-11-15T02:56:56;8.63;;;6.97;;
12163;SDS011;6145;50.192;10.064;2022-11-15T03:02:28;8.80;;;7.53;;
12163;SDS011;6145;50.192;10.064;2022-11-15T03:05:09;8.53;;;7.03;;
12163;SDS011;6145;50.192;10.064;2022-11-15T03:07:45;9.87;;;7.93;;
12163;SDS011;6145;50.192;10.064;2022-11-15T03:10:18;8.80;;;7.23;;
12163;SDS011;6145;50.192;10.064;2022-11-15T03:12:51;8.33;;;6.47;;
12163;SDS011;6145;50.192;10.064;2022-11-15T03:15:22;10.93;;;7.70;;
12163;SDS011;6145;50.192;10.064;2022-11-15T03:17:57;9.00;;;6.67;;
12163;SDS011;6145;50.192;10.064;2022-11-15T03:20:26;10.83;;;7.27;;
12163;SDS011;6145;50.192;10.064;2022-11-15T03:22:56;8.03;;;7.23;;
12163;SDS011;6145;50.192;10.064;2022-11-15T03:25:29;10.03;;;6.93;;
12163;SDS011;6145;50.192;10.064;2022-11-15T03:28:01;7.47;;;6.50;;
12163;SDS011;6145;50.192;10.064;2022-11-15T03:30:31;7.53;;;6.07;;
12163;SDS011;6145;50.192;10.064;2022-11-15T03:33:02;8.53;;;6.20;;
12163;SDS011;6145;50.192;10.064;2022-11-15T03:35:32;6.73;;;5.93;;
12163;SDS011;6145;50.192;10.064;2022-11-15T03:38:04;7.23;;;6.33;;
12163;SDS011;6145;50.192;10.064;2022-11-15T03:40:38;6.77;;;6.07;;
12163;SDS011;6145;50.192;10.064;2022-11-15T03:43:09;6.13;;;5.53;;
12163;SDS011;6145;50.192;10.064;2022-11-15T03:45:43;7.50;;;5.90;;
12163;SDS011;6145;50.192;10.064;2022-11-15T03:48:15;8.23;;;6.30;;
12163;SDS011;6145;50.192;10.064;2022-11-15T03:50:46;5.63;;;5.03;;
12163;SDS011;6145;50.192;10.064;2022-11-15T03:53:14;7.93;;;5.53;;
12163;SDS011;6145;50.192;10.064;2022-11-15T03:55:41;7.37;;;6.10;;
12163;SDS011;6145;50.192;10.064;2022-11-15T03:58:08;6.07;;;5.17;;
12163;SDS011;6145;50.192;10.064;2022-11-15T04:00:35;7.70;;;5.63;;
12163;SDS011;6145;50.192;10.064;2022-11-15T04:03:02;6.33;;;4.57;;
12163;SDS011;6145;50.192;10.064;2022-11-15T04:05:30;6.47;;;5.37;;
12163;SDS011;6145;50.192;10.064;2022-11-15T04:07:57;7.53;;;4.87;;
12163;SDS011;6145;50.192;10.064;2022-11-15T04:10:24;5.47;;;4.67;;
12163;SDS011;6145;50.192;10.064;2022-11-15T04:12:50;5.10;;;4.23;;
12163;SDS011;6145;50.192;10.064;2022-11-15T04:15:18;6.90;;;4.63;;
12163;SDS011;6145;50.192;10.064;2022-11-15T04:17:47;7.73;;;5.83;;
12163;SDS011;6145;50.192;10.064;2022-11-15T04:20:16;4.70;;;4.20;;
12163;SDS011;6145;50.192;10.064;2022-11-15T04:23:04;5.40;;;4.90;;
12163;SDS011;6145;50.192;10.064;2022-11-15T04:25:49;6.47;;;4.53;;
12163;SDS011;6145;50.192;10.064;2022-11-15T04:28:18;5.23;;;4.13;;
12163;SDS011;6145;50.192;10.064;2022-11-15T04:30:45;6.57;;;4.63;;
12163;SDS011;6145;50.192;10.064;2022-11-15T04:33:12;8.63;;;5.00;;
12163;SDS011;6145;50.192;10.064;2022-11-15T04:35:39;4.83;;;4.17;;
12163;SDS011;6145;50.192;10.064;2022-11-15T04:38:08;8.03;;;6.07;;
12163;SDS011;6145;50.192;10.064;2022-11-15T04:40:35;6.37;;;4.63;;
12163;SDS011;6145;50.192;10.064;2022-11-15T04:43:02;9.97;;;6.60;;
12163;SDS011;6145;50.192;10.064;2022-11-15T04:45:30;10.03;;;6.17;;
12163;SDS011;6145;50.192;10.064;2022-11-15T04:47:57;7.13;;;5.37;;
12163;SDS011;6145;50.192;10.064;2022-11-15T04:50:23;12.83;;;8.60;;
12163;SDS011;6145;50.192;10.064;2022-11-15T04:52:51;9.00;;;6.20;;
12163;SDS011;6145;50.192;10.064;2022-11-15T04:55:21;7.27;;;5.30;;
12163;SDS011;6145;50.192;10.064;2022-11-15T05:01:10;8.67;;;5.93;;
12163;SDS011;6145;50.192;10.064;2022-11-15T05:03:39;9.63;;;5.93;;
12163;SDS011;6145;50.192;10.064;2022-11-15T05:06:23;8.07;;;5.90;;
12163;SDS011;6145;50.192;10.064;2022-11-15T05:08:50;9.00;;;5.37;;
12163;SDS011;6145;50.192;10.064;2022-11-15T05:11:19;7.17;;;5.43;;
12163;SDS011;6145;50.192;10.064;2022-11-15T05:13:46;6.27;;;5.17;;
12163;SDS011;6145;50.192;10.064;2022-11-15T05:16:13;6.33;;;5.40;;
12163;SDS011;6145;50.192;10.064;2022-11-15T05:18:40;8.20;;;5.63;;
12163;SDS011;6145;50.192;10.064;2022-11-15T05:21:08;8.70;;;6.10;;
12163;SDS011;6145;50.192;10.064;2022-11-15T05:23:36;7.57;;;5.83;;
12163;SDS011;6145;50.192;10.064;2022-11-15T05:26:04;9.07;;;6.53;;
12163;SDS011;6145;50.192;10.064;2022-11-15T05:28:33;11.80;;;7.13;;
12163;SDS011;6145;50.192;10.064;2022-11-15T05:31:01;9.40;;;5.97;;
12163;SDS011;6145;50.192;10.064;2022-11-15T05:33:28;6.87;;;5.60;;
12163;SDS011;6145;50.192;10.064;2022-11-15T05:35:57;11.17;;;7.63;;
12163;SDS011;6145;50.192;10.064;2022-11-15T05:38:29;7.80;;;6.50;;
12163;SDS011;6145;50.192;10.064;2022-11-15T06:01:46;9.03;;;6.30;;
12163;SDS011;6145;50.192;10.064;2022-11-15T06:24:34;9.03;;;6.30;;
12163;SDS011;6145;50.192;10.064;2022-11-15T06:27:01;10.93;;;7.80;;
12163;SDS011;6145;50.192;10.064;2022-11-15T06:29:28;14.97;;;8.70;;
12163;SDS011;6145;50.192;10.064;2022-11-15T06:31:55;16.03;;;8.33;;
12163;SDS011;6145;50.192;10.064;2022-11-15T06:34:21;8.97;;;7.00;;
12163;SDS011;6145;50.192;10.064;2022-11-15T06:36:48;9.70;;;6.90;;
12163;SDS011;6145;50.192;10.064;2022-11-15T06:39:15;9.27;;;7.40;;
12163;SDS011;6145;50.192;10.064;2022-11-15T06:41:43;8.17;;;6.23;;
12163;SDS011;6145;50.192;10.064;2022-11-15T06:44:10;10.03;;;7.33;;
12163;SDS011;6145;50.192;10.064;2022-11-15T06:46:37;10.33;;;7.37;;
12163;SDS011;6145;50.192;10.064;2022-11-15T06:49:04;10.50;;;7.40;;
12163;SDS011;6145;50.192;10.064;2022-11-15T06:51:31;13.30;;;9.03;;
12163;SDS011;6145;50.192;10.064;2022-11-15T06:53:57;7.97;;;7.17;;
12163;SDS011;6145;50.192;10.064;2022-11-15T06:56:24;11.37;;;8.57;;
12163;SDS011;6145;50.192;10.064;2022-11-15T06:58:52;12.33;;;8.83;;
12163;SDS011;6145;50.192;10.064;2022-11-15T07:01:19;9.70;;;7.80;;
12163;SDS011;6145;50.192;10.064;2022-11-15T07:03:46;10.00;;;7.47;;
12163;SDS011;6145;50.192;10.064;2022-11-15T07:06:13;9.50;;;7.57;;
12163;SDS011;6145;50.192;10.064;2022-11-15T07:08:39;7.67;;;6.53;;
12163;SDS011;6145;50.192;10.064;2022-11-15T07:11:07;8.60;;;7.50;;
12163;SDS011;6145;50.192;10.064;2022-11-15T07:13:35;12.73;;;6.83;;
12163;SDS011;6145;50.192;10.064;2022-11-15T07:16:04;8.70;;;7.10;;
12163;SDS011;6145;50.192;10.064;2022-11-15T07:18:33;8.47;;;7.37;;
12163;SDS011;6145;50.192;10.064;2022-11-15T07:21:01;8.07;;;7.27;;
12163;SDS011;6145;50.192;10.064;2022-11-15T07:23:28;13.33;;;7.27;;
12163;SDS011;6145;50.192;10.064;2022-11-15T07:25:56;10.07;;;7.00;;
12163;SDS011;6145;50.192;10.064;2022-11-15T07:28:24;7.77;;;6.87;;
12163;SDS011;6145;50.192;10.064;2022-11-15T07:30:51;8.47;;;7.43;;
12163;SDS011;6145;50.192;10.064;2022-11-15T07:33:19;9.13;;;7.53;;
12163;SDS011;6145;50.192;10.064;2022-11-15T07:35:46;11.37;;;7.80;;
12163;SDS011;6145;50.192;10.064;2022-11-15T07:38:14;12.20;;;8.27;;
12163;SDS011;6145;50.192;10.064;2022-11-15T07:40:44;10.83;;;7.83;;
12163;SDS011;6145;50.192;10.064;2022-11-15T07:43:11;8.43;;;6.57;;
12163;SDS011;6145;50.192;10.064;2022-11-15T07:45:40;12.30;;;8.13;;
12163;SDS011;6145;50.192;10.064;2022-11-15T07:48:08;10.50;;;7.90;;
12163;SDS011;6145;50.192;10.064;2022-11-15T07:50:36;9.37;;;7.03;;
12163;SDS011;6145;50.192;10.064;2022-11-15T07:53:03;12.20;;;8.13;;
12163;SDS011;6145;50.192;10.064;2022-11-15T07:55:30;8.67;;;7.60;;
12163;SDS011;6145;50.192;10.064;2022-11-15T07:58:00;9.97;;;7.90;;
12163;SDS011;6145;50.192;10.064;2022-11-15T08:00:28;8.77;;;6.87;;
12163;SDS011;6145;50.192;10.064;2022-11-15T08:03:00;12.70;;;7.47;;
12163;SDS011;6145;50.192;10.064;2022-11-15T08:05:28;8.53;;;7.23;;
12163;SDS011;6145;50.192;10.064;2022-11-15T08:07:56;6.80;;;6.10;;
12163;SDS011;6145;50.192;10.064;2022-11-15T08:10:23;8.27;;;7.10;;
12163;SDS011;6145;50.192;10.064;2022-11-15T08:12:56;7.53;;;5.73;;
12163;SDS011;6145;50.192;10.064;2022-11-15T08:15:23;6.17;;;5.17;;
12163;SDS011;6145;50.192;10.064;2022-11-15T08:17:53;7.70;;;5.70;;
12163;SDS011;6145;50.192;10.064;2022-11-15T08:20:20;6.63;;;5.93;;
12163;SDS011;6145;50.192;10.064;2022-11-15T08:22:47;11.97;;;7.67;;
12163;SDS011;6145;50.192;10.064;2022-11-15T08:25:15;14.70;;;11.97;;
12163;SDS011;6145;50.192;10.064;2022-11-15T08:27:42;10.43;;;9.43;;
12163;SDS011;6145;50.192;10.064;2022-11-15T08:30:10;10.67;;;7.43;;
12163;SDS011;6145;50.192;10.064;2022-11-15T08:32:37;10.73;;;7.47;;
12163;SDS011;6145;50.192;10.064;2022-11-15T08:35:05;9.50;;;7.70;;
12163;SDS011;6145;50.192;10.064;2022-11-15T08:37:32;8.20;;;7.10;;
12163;SDS011;6145;50.192;10.064;2022-11-15T08:39:59;9.80;;;8.10;;
12163;SDS011;6145;50.192;10.064;2022-11-15T08:42:27;9.10;;;7.57;;
12163;SDS011;6145;50.192;10.064;2022-11-15T08:44:54;10.87;;;7.80;;
12163;SDS011;6145;50.192;10.064;2022-11-15T08:47:21;11.70;;;7.57;;
12163;SDS011;6145;50.192;10.064;2022-11-15T08:49:48;11.00;;;8.10;;
12163;SDS011;6145;50.192;10.064;2022-11-15T08:52:15;8.90;;;8.00;;
12163;SDS011;6145;50.192;10.064;2022-11-15T08:54:42;9.53;;;7.60;;
12163;SDS011;6145;50.192;10.064;2022-11-15T08:57:08;8.90;;;7.97;;
12163;SDS011;6145;50.192;10.064;2022-11-15T08:59:37;10.03;;;8.30;;
12163;SDS011;6145;50.192;10.064;2022-11-15T09:02:04;9.80;;;8.13;;
12163;SDS011;6145;50.192;10.064;2022-11-15T09:04:31;9.60;;;7.97;;
12163;SDS011;6145;50.192;10.064;2022-11-15T09:06:58;8.97;;;7.73;;
12163;SDS011;6145;50.192;10.064;2022-11-15T09:09:25;11.17;;;8.00;;
12163;SDS011;6145;50.192;10.064;2022-11-15T09:11:52;9.27;;;7.60;;
12163;SDS011;6145;50.192;10.064;2022-11-15T09:14:18;10.23;;;7.47;;
12163;SDS011;6145;50.192;10.064;2022-11-15T09:16:47;10.43;;;8.03;;
12163;SDS011;6145;50.192;10.064;2022-11-15T09:19:13;9.07;;;7.53;;
12163;SDS011;6145;50.192;10.064;2022-11-15T09:21:40;11.40;;;7.70;;
12163;SDS011;6145;50.192;10.064;2022-11-15T09:24:07;10.80;;;8.37;;
12163;SDS011;6145;50.192;10.064;2022-11-15T09:26:34;10.53;;;8.00;;
12163;SDS011;6145;50.192;10.064;2022-11-15T09:29:01;8.60;;;7.37;;
12163;SDS011;6145;50.192;10.064;2022-11-15T09:31:28;9.73;;;7.60;;
12163;SDS011;6145;50.192;10.064;2022-11-15T09:33:56;8.67;;;7.60;;
12163;SDS011;6145;50.192;10.064;2022-11-15T09:36:23;10.23;;;7.67;;
12163;SDS011;6145;50.192;10.064;2022-11-15T09:38:50;11.47;;;8.13;;
12163;SDS011;6145;50.192;10.064;2022-11-15T09:44:21;8.40;;;7.03;;
12163;SDS011;6145;50.192;10.064;2022-11-15T09:47:03;10.73;;;7.33;;
12163;SDS011;6145;50.192;10.064;2022-11-15T09:49:47;10.77;;;6.77;;
12163;SDS011;6145;50.192;10.064;2022-11-15T09:52:17;7.07;;;6.37;;
12163;SDS011;6145;50.192;10.064;2022-11-15T09:54:46;9.40;;;6.90;;
12163;SDS011;6145;50.192;10.064;2022-11-15T09:57:16;18.07;;;7.83;;
12163;SDS011;6145;50.192;10.064;2022-11-15T09:59:48;8.03;;;6.93;;
12163;SDS011;6145;50.192;10.064;2022-11-15T10:02:39;9.47;;;7.30;;
12163;SDS011;6145;50.192;10.064;2022-11-15T10:05:20;10.30;;;7.03;;
12163;SDS011;6145;50.192;10.064;2022-11-15T10:07:50;9.40;;;7.07;;
12163;SDS011;6145;50.192;10.064;2022-11-15T10:10:25;9.17;;;7.30;;
12163;SDS011;6145;50.192;10.064;2022-11-15T10:12:57;9.30;;;7.17;;
12163;SDS011;6145;50.192;10.064;2022-11-15T10:15:25;10.33;;;7.83;;
12163;SDS011;6145;50.192;10.064;2022-11-15T10:18:09;8.77;;;6.77;;
12163;SDS011;6145;50.192;10.064;2022-11-15T10:20:44;8.17;;;6.60;;
12163;SDS011;6145;50.192;10.064;2022-11-15T10:23:15;10.50;;;7.00;;
12163;SDS011;6145;50.192;10.064;2022-11-15T10:25:44;8.10;;;6.73;;
12163;SDS011;6145;50.192;10.064;2022-11-15T10:28:13;9.47;;;6.47;;
12163;SDS011;6145;50.192;10.064;2022-11-15T10:30:42;8.17;;;6.47;;
12163;SDS011;6145;50.192;10.064;2022-11-15T10:33:12;7.77;;;6.30;;
12163;SDS011;6145;50.192;10.064;2022-11-15T10:35:46;8.43;;;5.80;;
12163;SDS011;6145;50.192;10.064;2022-11-15T10:38:13;7.20;;;6.33;;
12163;SDS011;6145;50.192;10.064;2022-11-15T10:40:40;8.43;;;5.73;;
12163;SDS011;6145;50.192;10.064;2022-11-15T10:43:14;8.77;;;6.60;;
12163;SDS011;6145;50.192;10.064;2022-11-15T10:45:42;8.10;;;6.43;;
12163;SDS011;6145;50.192;10.064;2022-11-15T10:48:21;6.37;;;5.67;;
12163;SDS011;6145;50.192;10.064;2022-11-15T10:50:51;12.17;;;6.63;;
12163;SDS011;6145;50.192;10.064;2022-11-15T10:53:28;8.33;;;5.90;;
12163;SDS011;6145;50.192;10.064;2022-11-15T10:55:58;6.37;;;5.73;;
12163;SDS011;6145;50.192;10.064;2022-11-15T10:58:33;8.07;;;5.93;;
12163;SDS011;6145;50.192;10.064;2022-11-15T11:01:13;6.33;;;5.53;;
12163;SDS011;6145;50.192;10.064;2022-11-15T11:03:42;6.60;;;5.23;;
12163;SDS011;6145;50.192;10.064;2022-11-15T11:06:15;7.00;;;5.40;;
12163;SDS011;6145;50.192;10.064;2022-11-15T11:08:54;6.80;;;5.83;;
12163;SDS011;6145;50.192;10.064;2022-11-15T11:11:22;7.07;;;5.93;;
12163;SDS011;6145;50.192;10.064;2022-11-15T11:13:49;6.70;;;5.20;;
12163;SDS011;6145;50.192;10.064;2022-11-15T11:16:23;11.37;;;6.00;;
12163;SDS011;6145;50.192;10.064;2022-11-15T11:19:13;7.07;;;5.83;;
12163;SDS011;6145;50.192;10.064;2022-11-15T11:21:54;6.50;;;5.83;;
12163;SDS011;6145;50.192;10.064;2022-11-15T11:24:29;6.90;;;5.27;;
12163;SDS011;6145;50.192;10.064;2022-11-15T11:27:08;6.47;;;5.67;;
12163;SDS011;6145;50.192;10.064;2022-11-15T11:29:58;9.97;;;5.37;;
12163;SDS011;6145;50.192;10.064;2022-11-15T11:32:40;8.87;;;5.90;;
12163;SDS011;6145;50.192;10.064;2022-11-15T11:35:18;6.77;;;5.20;;
12163;SDS011;6145;50.192;10.064;2022-11-15T11:37:59;6.50;;;5.80;;
12163;SDS011;6145;50.192;10.064;2022-11-15T11:40:37;5.90;;;4.93;;
12163;SDS011;6145;50.192;10.064;2022-11-15T11:43:11;7.50;;;5.83;;
12163;SDS011;6145;50.192;10.064;2022-11-15T11:48:43;5.73;;;4.70;;
12163;SDS011;6145;50.192;10.064;2022-11-15T11:51:14;5.37;;;4.87;;
12163;SDS011;6145;50.192;10.064;2022-11-15T11:53:50;5.93;;;5.30;;
12163;SDS011;6145;50.192;10.064;2022-11-15T11:56:23;9.00;;;4.80;;
12163;SDS011;6145;50.192;10.064;2022-11-15T11:58:53;6.30;;;4.63;;
12163;SDS011;6145;50.192;10.064;2022-11-15T12:01:23;5.57;;;5.07;;
12163;SDS011;6145;50.192;10.064;2022-11-15T12:03:54;7.13;;;6.03;;
12163;SDS011;6145;50.192;10.064;2022-11-15T12:06:27;6.33;;;5.53;;
12163;SDS011;6145;50.192;10.064;2022-11-15T12:09:00;5.93;;;5.30;;
12163;SDS011;6145;50.192;10.064;2022-11-15T12:11:34;7.17;;;5.03;;
12163;SDS011;6145;50.192;10.064;2022-11-15T12:14:05;5.87;;;5.00;;
12163;SDS011;6145;50.192;10.064;2022-11-15T12:16:39;5.50;;;4.70;;
12163;SDS011;6145;50.192;10.064;2022-11-15T12:19:08;5.20;;;4.70;;
12163;SDS011;6145;50.192;10.064;2022-11-15T12:21:36;6.73;;;4.87;;
12163;SDS011;6145;50.192;10.064;2022-11-15T12:24:13;9.40;;;5.23;;
12163;SDS011;6145;50.192;10.064;2022-11-15T12:26:46;5.43;;;4.93;;
12163;SDS011;6145;50.192;10.064;2022-11-15T12:29:18;8.00;;;5.00;;
12163;SDS011;6145;50.192;10.064;2022-11-15T12:31:51;5.40;;;4.90;;
12163;SDS011;6145;50.192;10.064;2022-11-15T12:34:38;8.37;;;4.97;;
12163;SDS011;6145;50.192;10.064;2022-11-15T12:40:23;5.67;;;5.03;;
12163;SDS011;6145;50.192;10.064;2022-11-15T12:43:05;5.70;;;4.63;;
12163;SDS011;6145;50.192;10.064;2022-11-15T12:45:55;6.20;;;5.40;;
12163;SDS011;6145;50.192;10.064;2022-11-15T12:57:40;6.27;;;5.00;;
12163;SDS011;6145;50.192;10.064;2022-11-15T13:06:00;8.37;;;5.53;;
12163;SDS011;6145;50.192;10.064;2022-11-15T13:08:37;5.63;;;5.00;;
12163;SDS011;6145;50.192;10.064;2022-11-15T13:11:41;6.87;;;5.13;;
12163;SDS011;6145;50.192;10.064;2022-11-15T13:20:22;5.37;;;4.83;;
12163;SDS011;6145;50.192;10.064;2022-11-15T13:22:52;8.23;;;5.40;;
12163;SDS011;6145;50.192;10.064;2022-11-15T13:25:51;7.47;;;4.93;;
12163;SDS011;6145;50.192;10.064;2022-11-15T13:28:36;5.37;;;4.83;;
12163;SDS011;6145;50.192;10.064;2022-11-15T13:31:17;4.90;;;4.20;;
12163;SDS011;6145;50.192;10.064;2022-11-15T13:33:50;5.43;;;4.57;;
12163;SDS011;6145;50.192;10.064;2022-11-15T13:36:19;6.40;;;4.87;;
12163;SDS011;6145;50.192;10.064;2022-11-15T13:38:53;10.70;;;5.40;;
12163;SDS011;6145;50.192;10.064;2022-11-15T13:41:23;6.40;;;5.43;;
12163;SDS011;6145;50.192;10.064;2022-11-15T13:43:51;7.53;;;5.10;;
12163;SDS011;6145;50.192;10.064;2022-11-15T13:46:21;5.43;;;4.93;;
12163;SDS011;6145;50.192;10.064;2022-11-15T13:48:51;7.50;;;4.90;;
12163;SDS011;6145;50.192;10.064;2022-11-15T13:51:21;6.57;;;5.37;;
12163;SDS011;6145;50.192;10.064;2022-11-15T13:53:53;6.70;;;4.80;;
12163;SDS011;6145;50.192;10.064;2022-11-15T13:56:22;5.20;;;4.63;;
12163;SDS011;6145;50.192;10.064;2022-11-15T13:58:52;5.03;;;4.47;;
12163;SDS011;6145;50.192;10.064;2022-11-15T14:01:21;5.20;;;4.70;;
12163;SDS011;6145;50.192;10.064;2022-11-15T14:03:54;6.00;;;4.53;;
12163;SDS011;6145;50.192;10.064;2022-11-15T14:06:25;5.33;;;4.80;;
12163;SDS011;6145;50.192;10.064;2022-11-15T14:09:02;6.17;;;5.57;;
12163;SDS011;6145;50.192;10.064;2022-11-15T14:11:49;5.00;;;4.53;;
12163;SDS011;6145;50.192;10.064;2022-11-15T14:14:16;6.70;;;5.53;;
12163;SDS011;6145;50.192;10.064;2022-11-15T14:16:49;7.07;;;5.03;;
12163;SDS011;6145;50.192;10.064;2022-11-15T14:19:34;5.27;;;4.63;;
12163;SDS011;6145;50.192;10.064;2022-11-15T14:22:16;5.93;;;4.53;;
12163;SDS011;6145;50.192;10.064;2022-11-15T14:25:05;7.77;;;4.83;;
12163;SDS011;6145;50.192;10.064;2022-11-15T14:27:41;6.30;;;4.63;;
12163;SDS011;6145;50.192;10.064;2022-11-15T14:30:12;4.67;;;4.27;;
12163;SDS011;6145;50.192;10.064;2022-11-15T14:32:43;5.97;;;4.33;;
12163;SDS011;6145;50.192;10.064;2022-11-15T14:35:14;4.53;;;4.13;;
12163;SDS011;6145;50.192;10.064;2022-11-15T14:37:42;4.07;;;3.77;;
12163;SDS011;6145;50.192;10.064;2022-11-15T14:40:11;4.63;;;4.17;;
12163;SDS011;6145;50.192;10.064;2022-11-15T14:42:39;5.53;;;4.50;;
12163;SDS011;6145;50.192;10.064;2022-11-15T14:45:09;6.23;;;4.27;;
12163;SDS011;6145;50.192;10.064;2022-11-15T14:47:38;5.63;;;4.03;;
12163;SDS011;6145;50.192;10.064;2022-11-15T14:50:10;5.50;;;4.23;;
12163;SDS011;6145;50.192;10.064;2022-11-15T14:52:38;5.37;;;4.00;;
12163;SDS011;6145;50.192;10.064;2022-11-15T14:57:39;4.10;;;3.70;;
12163;SDS011;6145;50.192;10.064;2022-11-15T15:00:07;6.60;;;4.57;;
12163;SDS011;6145;50.192;10.064;2022-11-15T15:02:35;6.03;;;5.43;;
12163;SDS011;6145;50.192;10.064;2022-11-15T15:05:08;5.50;;;5.00;;
12163;SDS011;6145;50.192;10.064;2022-11-15T15:07:43;5.33;;;4.83;;
12163;SDS011;6145;50.192;10.064;2022-11-15T15:10:11;5.17;;;4.63;;
12163;SDS011;6145;50.192;10.064;2022-11-15T15:12:38;6.27;;;5.20;;
12163;SDS011;6145;50.192;10.064;2022-11-15T15:15:09;5.20;;;4.70;;
12163;SDS011;6145;50.192;10.064;2022-11-15T15:17:39;7.37;;;5.73;;
12163;SDS011;6145;50.192;10.064;2022-11-15T15:20:11;5.97;;;4.63;;
12163;SDS011;6145;50.192;10.064;2022-11-15T15:22:44;5.97;;;5.10;;
12163;SDS011;6145;50.192;10.064;2022-11-15T15:25:23;5.20;;;4.70;;
12163;SDS011;6145;50.192;10.064;2022-11-15T15:27:53;5.70;;;5.10;;
12163;SDS011;6145;50.192;10.064;2022-11-15T15:30:20;5.97;;;5.33;;
12163;SDS011;6145;50.192;10.064;2022-11-15T15:32:47;5.57;;;4.90;;
12163;SDS011;6145;50.192;10.064;2022-11-15T15:35:23;12.27;;;5.73;;
12163;SDS011;6145;50.192;10.064;2022-11-15T15:37:55;12.57;;;6.20;;
12163;SDS011;6145;50.192;10.064;2022-11-15T15:40:22;6.47;;;5.87;;
12163;SDS011;6145;50.192;10.064;2022-11-15T15:42:50;5.80;;;4.93;;
12163;SDS011;6145;50.192;10.064;2022-11-15T15:45:17;7.23;;;5.10;;
12163;SDS011;6145;50.192;10.064;2022-11-15T15:47:47;6.83;;;5.13;;
12163;SDS011;6145;50.192;10.064;2022-11-15T15:50:20;5.40;;;4.80;;
12163;SDS011;6145;50.192;10.064;2022-11-15T15:52:49;7.67;;;6.17;;
12163;SDS011;6145;50.192;10.064;2022-11-15T15:55:18;8.70;;;6.07;;
12163;SDS011;6145;50.192;10.064;2022-11-15T15:57:46;7.00;;;6.30;;
12163;SDS011;6145;50.192;10.064;2022-11-15T16:00:13;7.10;;;5.80;;
12163;SDS011;6145;50.192;10.064;2022-11-15T16:02:41;8.13;;;6.77;;
12163;SDS011;6145;50.192;10.064;2022-11-15T16:05:08;37.03;;;22.77;;
12163;SDS011;6145;50.192;10.064;2022-11-15T16:07:37;15.33;;;10.70;;
12163;SDS011;6145;50.192;10.064;2022-11-15T16:10:13;9.30;;;7.13;;
12163;SDS011;6145;50.192;10.064;2022-11-15T16:12:43;6.57;;;5.47;;
12163;SDS011;6145;50.192;10.064;2022-11-15T16:15:10;8.93;;;6.97;;
12163;SDS011;6145;50.192;10.064;2022-11-15T16:17:38;8.53;;;6.73;;
12163;SDS011;6145;50.192;10.064;2022-11-15T16:20:08;7.20;;;5.80;;
12163;SDS011;6145;50.192;10.064;2022-11-15T16:22:55;8.07;;;6.63;;
12163;SDS011;6145;50.192;10.064;2022-11-15T16:25:24;8.40;;;7.37;;
12163;SDS011;6145;50.192;10.064;2022-11-15T16:27:51;6.93;;;6.07;;
12163;SDS011;6145;50.192;10.064;2022-11-15T16:30:20;9.30;;;6.57;;